sensor_id;sensor_type;location;lat;lon;timestamp;P1;durP1;ratioP1;P2;durP2;ratioP2
9821;SDS011;4950;46.042;14.472;2023-02-26T00:00:57;0.80;;;0.80;;
9821;SDS011;4950;46.042;14.472;2023-02-26T00:03:25;1.45;;;0.77;;
9821;SDS011;4950;46.042;14.472;2023-02-26T00:05:52;1.25;;;0.80;;
9821;SDS011;4950;46.042;14.472;2023-02-26T00:08:18;0.60;;;0.60;;
9821;SDS011;4950;46.042;14.472;2023-02-26T00:10:45;0.40;;;0.40;;
9821;SDS011;4950;46.042;14.472;2023-02-26T00:13:12;1.17;;;0.80;;
9821;SDS011;4950;46.042;14.472;2023-02-26T00:15:40;0.68;;;0.60;;
9821;SDS011;4950;46.042;14.472;2023-02-26T00:18:08;0.80;;;0.70;;
9821;SDS011;4950;46.042;14.472;2023-02-26T00:20:43;1.10;;;0.60;;
9821;SDS011;4950;46.042;14.472;2023-02-26T00:23:11;0.40;;;0.40;;
9821;SDS011;4950;46.042;14.472;2023-02-26T00:25:39;1.25;;;0.60;;
9821;SDS011;4950;46.042;14.472;2023-02-26T00:28:06;0.50;;;0.50;;
9821;SDS011;4950;46.042;14.472;2023-02-26T00:30:33;1.85;;;0.60;;
9821;SDS011;4950;46.042;14.472;2023-02-26T00:33:01;1.05;;;0.65;;
9821;SDS011;4950;46.042;14.472;2023-02-26T00:35:29;0.40;;;0.40;;
9821;SDS011;4950;46.042;14.472;2023-02-26T00:37:59;0.60;;;0.60;;
9821;SDS011;4950;46.042;14.472;2023-02-26T00:40:28;0.60;;;0.50;;
9821;SDS011;4950;46.042;14.472;2023-02-26T00:43:01;1.00;;;0.70;;
9821;SDS011;4950;46.042;14.472;2023-02-26T00:45:29;0.93;;;0.57;;
9821;SDS011;4950;46.042;14.472;2023-02-26T00:47:59;0.50;;;0.47;;
9821;SDS011;4950;46.042;14.472;2023-02-26T00:50:39;0.87;;;0.60;;
9821;SDS011;4950;46.042;14.472;2023-02-26T00:53:15;0.80;;;0.52;;
9821;SDS011;4950;46.042;14.472;2023-02-26T00:55:47;0.50;;;0.50;;
9821;SDS011;4950;46.042;14.472;2023-02-26T00:58:13;1.57;;;0.70;;
9821;SDS011;4950;46.042;14.472;2023-02-26T01:00:40;0.57;;;0.50;;
9821;SDS011;4950;46.042;14.472;2023-02-26T01:03:07;0.50;;;0.50;;
9821;SDS011;4950;46.042;14.472;2023-02-26T01:05:35;0.50;;;0.50;;
9821;SDS011;4950;46.042;14.472;2023-02-26T01:08:04;1.13;;;0.60;;
9821;SDS011;4950;46.042;14.472;2023-02-26T01:10:39;1.30;;;0.60;;
9821;SDS011;4950;46.042;14.472;2023-02-26T01:13:06;0.80;;;0.30;;
9821;SDS011;4950;46.042;14.472;2023-02-26T01:15:34;0.50;;;0.50;;
9821;SDS011;4950;46.042;14.472;2023-02-26T01:18:02;2.00;;;0.73;;
9821;SDS011;4950;46.042;14.472;2023-02-26T01:20:35;0.68;;;0.60;;
9821;SDS011;4950;46.042;14.472;2023-02-26T01:23:08;0.88;;;0.60;;
9821;SDS011;4950;46.042;14.472;2023-02-26T01:25:38;1.48;;;0.70;;
9821;SDS011;4950;46.042;14.472;2023-02-26T01:28:09;2.05;;;0.60;;
9821;SDS011;4950;46.042;14.472;2023-02-26T01:30:36;1.25;;;0.60;;
9821;SDS011;4950;46.042;14.472;2023-02-26T01:33:06;0.68;;;0.60;;
9821;SDS011;4950;46.042;14.472;2023-02-26T01:35:39;1.58;;;0.80;;
9821;SDS011;4950;46.042;14.472;2023-02-26T01:38:12;0.95;;;0.65;;
9821;SDS011;4950;46.042;14.472;2023-02-26T01:43:50;0.75;;;0.70;;
9821;SDS011;4950;46.042;14.472;2023-02-26T01:46:25;1.20;;;0.90;;
9821;SDS011;4950;46.042;14.472;2023-02-26T01:48:58;1.20;;;0.73;;
9821;SDS011;4950;46.042;14.472;2023-02-26T01:54:24;17.25;;;11.25;;
9821;SDS011;4950;46.042;14.472;2023-02-26T01:56:56;7.22;;;3.55;;
9821;SDS011;4950;46.042;14.472;2023-02-26T01:59:29;1.13;;;0.70;;
9821;SDS011;4950;46.042;14.472;2023-02-26T02:01:56;0.63;;;0.60;;
9821;SDS011;4950;46.042;14.472;2023-02-26T02:04:24;2.33;;;1.02;;
9821;SDS011;4950;46.042;14.472;2023-02-26T02:06:52;2.28;;;1.08;;
9821;SDS011;4950;46.042;14.472;2023-02-26T02:09:19;1.48;;;0.98;;
9821;SDS011;4950;46.042;14.472;2023-02-26T02:14:48;2.97;;;1.10;;
9821;SDS011;4950;46.042;14.472;2023-02-26T02:17:28;1.58;;;0.98;;
9821;SDS011;4950;46.042;14.472;2023-02-26T02:23:24;6.78;;;6.07;;
9821;SDS011;4950;46.042;14.472;2023-02-26T02:26:06;4.40;;;3.45;;
9821;SDS011;4950;46.042;14.472;2023-02-26T02:28:56;4.88;;;3.85;;
9821;SDS011;4950;46.042;14.472;2023-02-26T02:31:49;3.22;;;2.67;;
9821;SDS011;4950;46.042;14.472;2023-02-26T02:34:20;3.72;;;2.75;;
9821;SDS011;4950;46.042;14.472;2023-02-26T02:36:50;3.22;;;1.80;;
9821;SDS011;4950;46.042;14.472;2023-02-26T02:39:21;2.13;;;1.30;;
9821;SDS011;4950;46.042;14.472;2023-02-26T02:41:52;1.50;;;1.10;;
9821;SDS011;4950;46.042;14.472;2023-02-26T02:44:23;2.45;;;1.02;;
9821;SDS011;4950;46.042;14.472;2023-02-26T02:46:54;2.80;;;1.02;;
9821;SDS011;4950;46.042;14.472;2023-02-26T02:49:24;2.50;;;1.27;;
9821;SDS011;4950;46.042;14.472;2023-02-26T02:51:55;3.38;;;2.38;;
9821;SDS011;4950;46.042;14.472;2023-02-26T02:54:30;3.08;;;1.85;;
9821;SDS011;4950;46.042;14.472;2023-02-26T02:57:02;3.25;;;1.60;;
9821;SDS011;4950;46.042;14.472;2023-02-26T02:59:36;3.75;;;2.38;;
9821;SDS011;4950;46.042;14.472;2023-02-26T03:02:09;4.22;;;2.35;;
9821;SDS011;4950;46.042;14.472;2023-02-26T03:04:39;2.58;;;1.90;;
9821;SDS011;4950;46.042;14.472;2023-02-26T03:07:06;2.08;;;1.73;;
9821;SDS011;4950;46.042;14.472;2023-02-26T03:09:33;4.63;;;2.60;;
9821;SDS011;4950;46.042;14.472;2023-02-26T03:12:00;9.32;;;3.47;;
9821;SDS011;4950;46.042;14.472;2023-02-26T03:14:27;3.13;;;1.85;;
9821;SDS011;4950;46.042;14.472;2023-02-26T03:17:06;3.17;;;2.10;;
9821;SDS011;4950;46.042;14.472;2023-02-26T03:19:48;3.35;;;1.55;;
9821;SDS011;4950;46.042;14.472;2023-02-26T03:22:31;2.22;;;1.77;;
9821;SDS011;4950;46.042;14.472;2023-02-26T03:25:06;3.20;;;1.88;;
9821;SDS011;4950;46.042;14.472;2023-02-26T03:27:37;2.45;;;1.15;;
9821;SDS011;4950;46.042;14.472;2023-02-26T03:30:13;1.58;;;0.80;;
9821;SDS011;4950;46.042;14.472;2023-02-26T03:32:48;2.88;;;0.93;;
9821;SDS011;4950;46.042;14.472;2023-02-26T03:35:25;2.08;;;1.00;;
9821;SDS011;4950;46.042;14.472;2023-02-26T03:37:56;1.70;;;1.10;;
9821;SDS011;4950;46.042;14.472;2023-02-26T03:40:27;1.60;;;1.05;;
9821;SDS011;4950;46.042;14.472;2023-02-26T03:42:58;1.55;;;0.98;;
9821;SDS011;4950;46.042;14.472;2023-02-26T03:45:29;1.52;;;1.00;;
9821;SDS011;4950;46.042;14.472;2023-02-26T03:50:28;1.67;;;1.27;;
9821;SDS011;4950;46.042;14.472;2023-02-26T03:52:59;2.95;;;2.22;;
9821;SDS011;4950;46.042;14.472;2023-02-26T03:55:32;2.47;;;1.48;;
9821;SDS011;4950;46.042;14.472;2023-02-26T03:58:04;1.60;;;1.10;;
9821;SDS011;4950;46.042;14.472;2023-02-26T04:00:31;0.95;;;0.80;;
9821;SDS011;4950;46.042;14.472;2023-02-26T04:03:04;0.90;;;0.68;;
9821;SDS011;4950;46.042;14.472;2023-02-26T04:05:37;0.53;;;0.50;;
9821;SDS011;4950;46.042;14.472;2023-02-26T04:08:07;0.50;;;0.50;;
9821;SDS011;4950;46.042;14.472;2023-02-26T04:10:35;0.53;;;0.40;;
9821;SDS011;4950;46.042;14.472;2023-02-26T04:13:06;0.30;;;0.30;;
9821;SDS011;4950;46.042;14.472;2023-02-26T04:15:33;0.60;;;0.50;;
9821;SDS011;4950;46.042;14.472;2023-02-26T04:18:00;1.70;;;0.67;;
9821;SDS011;4950;46.042;14.472;2023-02-26T04:20:28;0.80;;;0.57;;
9821;SDS011;4950;46.042;14.472;2023-02-26T04:22:54;0.40;;;0.40;;
9821;SDS011;4950;46.042;14.472;2023-02-26T04:25:21;0.40;;;0.40;;
9821;SDS011;4950;46.042;14.472;2023-02-26T04:27:48;0.50;;;0.50;;
9821;SDS011;4950;46.042;14.472;2023-02-26T04:30:15;0.40;;;0.40;;
9821;SDS011;4950;46.042;14.472;2023-02-26T04:32:42;1.47;;;0.60;;
9821;SDS011;4950;46.042;14.472;2023-02-26T04:35:09;0.63;;;0.50;;
9821;SDS011;4950;46.042;14.472;2023-02-26T04:37:37;0.40;;;0.40;;
9821;SDS011;4950;46.042;14.472;2023-02-26T04:40:05;0.63;;;0.50;;
9821;SDS011;4950;46.042;14.472;2023-02-26T04:42:32;0.53;;;0.40;;
9821;SDS011;4950;46.042;14.472;2023-02-26T04:44:59;0.40;;;0.40;;
9821;SDS011;4950;46.042;14.472;2023-02-26T04:47:25;0.73;;;0.40;;
9821;SDS011;4950;46.042;14.472;2023-02-26T04:49:52;0.57;;;0.47;;
9821;SDS011;4950;46.042;14.472;2023-02-26T04:52:19;0.43;;;0.43;;
9821;SDS011;4950;46.042;14.472;2023-02-26T04:54:47;0.40;;;0.40;;
9821;SDS011;4950;46.042;14.472;2023-02-26T04:57:13;0.60;;;0.60;;
9821;SDS011;4950;46.042;14.472;2023-02-26T04:59:40;0.57;;;0.47;;
9821;SDS011;4950;46.042;14.472;2023-02-26T05:02:07;0.67;;;0.53;;
9821;SDS011;4950;46.042;14.472;2023-02-26T05:04:33;0.67;;;0.67;;
9821;SDS011;4950;46.042;14.472;2023-02-26T05:07:00;0.50;;;0.50;;
9821;SDS011;4950;46.042;14.472;2023-02-26T05:09:27;0.40;;;0.40;;
9821;SDS011;4950;46.042;14.472;2023-02-26T05:11:55;0.53;;;0.40;;
9821;SDS011;4950;46.042;14.472;2023-02-26T05:14:22;0.50;;;0.50;;
9821;SDS011;4950;46.042;14.472;2023-02-26T05:16:48;0.80;;;0.60;;
9821;SDS011;4950;46.042;14.472;2023-02-26T05:19:15;0.43;;;0.43;;
9821;SDS011;4950;46.042;14.472;2023-02-26T05:21:42;1.03;;;0.93;;
9821;SDS011;4950;46.042;14.472;2023-02-26T05:24:08;0.70;;;0.70;;
9821;SDS011;4950;46.042;14.472;2023-02-26T05:26:35;0.60;;;0.60;;
9821;SDS011;4950;46.042;14.472;2023-02-26T05:29:03;0.50;;;0.50;;
9821;SDS011;4950;46.042;14.472;2023-02-26T05:31:30;1.43;;;0.80;;
9821;SDS011;4950;46.042;14.472;2023-02-26T05:33:57;0.87;;;0.73;;
9821;SDS011;4950;46.042;14.472;2023-02-26T05:36:24;2.53;;;0.70;;
9821;SDS011;4950;46.042;14.472;2023-02-26T05:38:51;1.60;;;0.82;;
9821;SDS011;4950;46.042;14.472;2023-02-26T05:41:18;0.73;;;0.70;;
9821;SDS011;4950;46.042;14.472;2023-02-26T05:43:44;1.20;;;0.80;;
9821;SDS011;4950;46.042;14.472;2023-02-26T05:46:12;1.03;;;0.67;;
9821;SDS011;4950;46.042;14.472;2023-02-26T05:48:39;0.90;;;0.70;;
9821;SDS011;4950;46.042;14.472;2023-02-26T05:51:06;0.53;;;0.53;;
9821;SDS011;4950;46.042;14.472;2023-02-26T05:53:34;0.70;;;0.50;;
9821;SDS011;4950;46.042;14.472;2023-02-26T05:56:00;0.40;;;0.40;;
9821;SDS011;4950;46.042;14.472;2023-02-26T05:58:27;1.13;;;0.67;;
9821;SDS011;4950;46.042;14.472;2023-02-26T06:00:56;0.90;;;0.60;;
9821;SDS011;4950;46.042;14.472;2023-02-26T06:03:25;1.57;;;0.90;;
9821;SDS011;4950;46.042;14.472;2023-02-26T06:05:51;1.37;;;1.00;;
9821;SDS011;4950;46.042;14.472;2023-02-26T06:08:18;0.70;;;0.70;;
9821;SDS011;4950;46.042;14.472;2023-02-26T06:10:45;0.90;;;0.70;;
9821;SDS011;4950;46.042;14.472;2023-02-26T06:13:11;1.27;;;0.90;;
9821;SDS011;4950;46.042;14.472;2023-02-26T06:15:38;0.80;;;0.70;;
9821;SDS011;4950;46.042;14.472;2023-02-26T06:18:05;1.77;;;1.00;;
9821;SDS011;4950;46.042;14.472;2023-02-26T06:20:34;2.23;;;1.00;;
9821;SDS011;4950;46.042;14.472;2023-02-26T06:23:01;1.50;;;1.10;;
9821;SDS011;4950;46.042;14.472;2023-02-26T06:25:27;1.30;;;1.00;;
9821;SDS011;4950;46.042;14.472;2023-02-26T06:27:54;1.30;;;0.90;;
9821;SDS011;4950;46.042;14.472;2023-02-26T06:30:21;2.23;;;0.90;;
9821;SDS011;4950;46.042;14.472;2023-02-26T06:32:48;1.17;;;1.00;;
9821;SDS011;4950;46.042;14.472;2023-02-26T06:35:14;1.17;;;0.97;;
9821;SDS011;4950;46.042;14.472;2023-02-26T06:37:42;2.97;;;1.07;;
9821;SDS011;4950;46.042;14.472;2023-02-26T06:40:10;1.43;;;0.90;;
9821;SDS011;4950;46.042;14.472;2023-02-26T06:42:37;1.07;;;0.90;;
9821;SDS011;4950;46.042;14.472;2023-02-26T06:45:04;2.70;;;1.00;;
9821;SDS011;4950;46.042;14.472;2023-02-26T06:47:31;3.77;;;1.37;;
9821;SDS011;4950;46.042;14.472;2023-02-26T06:49:58;2.97;;;1.10;;
9821;SDS011;4950;46.042;14.472;2023-02-26T06:52:26;2.50;;;1.00;;
9821;SDS011;4950;46.042;14.472;2023-02-26T06:54:55;1.37;;;1.00;;
9821;SDS011;4950;46.042;14.472;2023-02-26T06:57:21;1.93;;;1.00;;
9821;SDS011;4950;46.042;14.472;2023-02-26T06:59:48;1.53;;;1.10;;
9821;SDS011;4950;46.042;14.472;2023-02-26T07:02:16;1.73;;;0.90;;
9821;SDS011;4950;46.042;14.472;2023-02-26T07:04:45;2.03;;;1.20;;
9821;SDS011;4950;46.042;14.472;2023-02-26T07:07:12;1.40;;;1.10;;
9821;SDS011;4950;46.042;14.472;2023-02-26T07:09:39;1.30;;;1.10;;
9821;SDS011;4950;46.042;14.472;2023-02-26T07:12:07;2.27;;;1.40;;
9821;SDS011;4950;46.042;14.472;2023-02-26T07:14:33;2.33;;;1.40;;
9821;SDS011;4950;46.042;14.472;2023-02-26T07:17:00;1.63;;;1.03;;
9821;SDS011;4950;46.042;14.472;2023-02-26T07:19:27;2.63;;;1.37;;
9821;SDS011;4950;46.042;14.472;2023-02-26T07:21:54;2.30;;;1.50;;
9821;SDS011;4950;46.042;14.472;2023-02-26T07:24:21;2.40;;;1.50;;
9821;SDS011;4950;46.042;14.472;2023-02-26T07:26:48;1.77;;;1.27;;
9821;SDS011;4950;46.042;14.472;2023-02-26T07:29:16;3.27;;;1.50;;
9821;SDS011;4950;46.042;14.472;2023-02-26T07:31:43;4.40;;;1.53;;
9821;SDS011;4950;46.042;14.472;2023-02-26T07:34:09;3.40;;;1.70;;
9821;SDS011;4950;46.042;14.472;2023-02-26T07:36:36;2.67;;;1.30;;
9821;SDS011;4950;46.042;14.472;2023-02-26T07:39:03;2.77;;;1.23;;
9821;SDS011;4950;46.042;14.472;2023-02-26T07:41:29;4.23;;;1.50;;
9821;SDS011;4950;46.042;14.472;2023-02-26T07:43:56;3.85;;;2.00;;
9821;SDS011;4950;46.042;14.472;2023-02-26T07:46:24;4.23;;;2.13;;
9821;SDS011;4950;46.042;14.472;2023-02-26T07:48:51;3.30;;;1.73;;
9821;SDS011;4950;46.042;14.472;2023-02-26T07:51:17;2.33;;;1.50;;
9821;SDS011;4950;46.042;14.472;2023-02-26T07:53:44;2.50;;;1.57;;
9821;SDS011;4950;46.042;14.472;2023-02-26T07:56:11;2.93;;;1.67;;
9821;SDS011;4950;46.042;14.472;2023-02-26T07:58:37;3.90;;;1.77;;
9821;SDS011;4950;46.042;14.472;2023-02-26T08:01:04;4.53;;;2.23;;
9821;SDS011;4950;46.042;14.472;2023-02-26T08:03:32;3.40;;;2.03;;
9821;SDS011;4950;46.042;14.472;2023-02-26T08:05:59;3.40;;;1.90;;
9821;SDS011;4950;46.042;14.472;2023-02-26T08:08:27;4.20;;;1.83;;
9821;SDS011;4950;46.042;14.472;2023-02-26T08:10:53;6.37;;;2.27;;
9821;SDS011;4950;46.042;14.472;2023-02-26T08:13:20;5.80;;;2.10;;
9821;SDS011;4950;46.042;14.472;2023-02-26T08:15:47;4.18;;;2.38;;
9821;SDS011;4950;46.042;14.472;2023-02-26T08:18:13;5.05;;;2.53;;
9821;SDS011;4950;46.042;14.472;2023-02-26T08:20:42;4.13;;;2.00;;
9821;SDS011;4950;46.042;14.472;2023-02-26T08:23:08;5.23;;;2.43;;
9821;SDS011;4950;46.042;14.472;2023-02-26T08:25:35;5.97;;;3.10;;
9821;SDS011;4950;46.042;14.472;2023-02-26T08:28:02;4.23;;;2.30;;
9821;SDS011;4950;46.042;14.472;2023-02-26T08:30:29;3.53;;;1.90;;
9821;SDS011;4950;46.042;14.472;2023-02-26T08:32:56;2.37;;;1.80;;
9821;SDS011;4950;46.042;14.472;2023-02-26T08:35:22;2.83;;;1.73;;
9821;SDS011;4950;46.042;14.472;2023-02-26T08:37:51;3.45;;;2.22;;
9821;SDS011;4950;46.042;14.472;2023-02-26T08:40:18;5.17;;;2.37;;
9821;SDS011;4950;46.042;14.472;2023-02-26T08:42:45;2.90;;;2.07;;
9821;SDS011;4950;46.042;14.472;2023-02-26T08:45:12;3.70;;;2.08;;
9821;SDS011;4950;46.042;14.472;2023-02-26T08:47:39;4.30;;;2.20;;
9821;SDS011;4950;46.042;14.472;2023-02-26T08:50:08;5.45;;;2.80;;
9821;SDS011;4950;46.042;14.472;2023-02-26T08:52:36;4.30;;;2.47;;
9821;SDS011;4950;46.042;14.472;2023-02-26T08:55:06;5.87;;;2.90;;
9821;SDS011;4950;46.042;14.472;2023-02-26T08:57:33;6.13;;;3.05;;
9821;SDS011;4950;46.042;14.472;2023-02-26T08:59:59;4.43;;;2.78;;
9821;SDS011;4950;46.042;14.472;2023-02-26T09:02:28;6.05;;;2.63;;
9821;SDS011;4950;46.042;14.472;2023-02-26T09:04:55;5.83;;;2.77;;
9821;SDS011;4950;46.042;14.472;2023-02-26T09:07:22;6.07;;;3.13;;
9821;SDS011;4950;46.042;14.472;2023-02-26T09:09:48;4.77;;;2.70;;
9821;SDS011;4950;46.042;14.472;2023-02-26T09:12:17;6.27;;;3.47;;
9821;SDS011;4950;46.042;14.472;2023-02-26T09:14:43;5.33;;;3.03;;
9821;SDS011;4950;46.042;14.472;2023-02-26T09:17:10;5.70;;;3.47;;
9821;SDS011;4950;46.042;14.472;2023-02-26T09:19:37;5.27;;;3.23;;
9821;SDS011;4950;46.042;14.472;2023-02-26T09:22:03;5.50;;;3.23;;
9821;SDS011;4950;46.042;14.472;2023-02-26T09:24:30;7.80;;;3.77;;
9821;SDS011;4950;46.042;14.472;2023-02-26T09:26:57;6.17;;;3.87;;
9821;SDS011;4950;46.042;14.472;2023-02-26T09:29:26;5.13;;;3.20;;
9821;SDS011;4950;46.042;14.472;2023-02-26T09:31:52;6.13;;;3.87;;
9821;SDS011;4950;46.042;14.472;2023-02-26T09:34:19;5.80;;;3.47;;
9821;SDS011;4950;46.042;14.472;2023-02-26T09:36:46;5.90;;;3.40;;
9821;SDS011;4950;46.042;14.472;2023-02-26T09:39:13;5.47;;;3.67;;
9821;SDS011;4950;46.042;14.472;2023-02-26T09:41:40;6.80;;;3.70;;
9821;SDS011;4950;46.042;14.472;2023-02-26T09:44:15;6.67;;;4.63;;
9821;SDS011;4950;46.042;14.472;2023-02-26T09:46:47;7.80;;;4.13;;
9821;SDS011;4950;46.042;14.472;2023-02-26T09:49:36;8.10;;;4.73;;
9821;SDS011;4950;46.042;14.472;2023-02-26T09:52:15;10.33;;;5.67;;
9821;SDS011;4950;46.042;14.472;2023-02-26T09:54:48;9.10;;;5.10;;
9821;SDS011;4950;46.042;14.472;2023-02-26T09:57:21;9.87;;;5.43;;
9821;SDS011;4950;46.042;14.472;2023-02-26T09:59:53;9.73;;;5.87;;
9821;SDS011;4950;46.042;14.472;2023-02-26T10:02:23;9.00;;;5.30;;
9821;SDS011;4950;46.042;14.472;2023-02-26T10:04:55;7.10;;;4.67;;
9821;SDS011;4950;46.042;14.472;2023-02-26T10:07:32;10.10;;;4.63;;
9821;SDS011;4950;46.042;14.472;2023-02-26T10:10:10;7.83;;;4.50;;
9821;SDS011;4950;46.042;14.472;2023-02-26T10:15:12;6.57;;;4.00;;
9821;SDS011;4950;46.042;14.472;2023-02-26T10:17:48;11.73;;;4.90;;
9821;SDS011;4950;46.042;14.472;2023-02-26T10:20:23;6.93;;;4.43;;
9821;SDS011;4950;46.042;14.472;2023-02-26T10:22:56;9.17;;;4.40;;
9821;SDS011;4950;46.042;14.472;2023-02-26T10:25:28;9.10;;;4.63;;
9821;SDS011;4950;46.042;14.472;2023-02-26T10:28:04;9.77;;;4.83;;
9821;SDS011;4950;46.042;14.472;2023-02-26T10:30:43;7.87;;;4.33;;
9821;SDS011;4950;46.042;14.472;2023-02-26T10:33:16;5.70;;;3.77;;
9821;SDS011;4950;46.042;14.472;2023-02-26T10:35:51;6.53;;;3.83;;
9821;SDS011;4950;46.042;14.472;2023-02-26T10:38:21;6.90;;;3.85;;
9821;SDS011;4950;46.042;14.472;2023-02-26T10:40:52;6.00;;;3.40;;
9821;SDS011;4950;46.042;14.472;2023-02-26T10:43:26;6.23;;;3.57;;
9821;SDS011;4950;46.042;14.472;2023-02-26T10:46:00;5.63;;;3.50;;
9821;SDS011;4950;46.042;14.472;2023-02-26T10:48:46;5.73;;;3.40;;
9821;SDS011;4950;46.042;14.472;2023-02-26T10:51:25;6.53;;;3.17;;
9821;SDS011;4950;46.042;14.472;2023-02-26T10:53:58;5.63;;;3.80;;
9821;SDS011;4950;46.042;14.472;2023-02-26T10:56:28;4.95;;;3.10;;
9821;SDS011;4950;46.042;14.472;2023-02-26T10:58:56;4.90;;;3.28;;
9821;SDS011;4950;46.042;14.472;2023-02-26T11:01:24;5.00;;;3.40;;
9821;SDS011;4950;46.042;14.472;2023-02-26T11:03:55;4.53;;;3.08;;
9821;SDS011;4950;46.042;14.472;2023-02-26T11:06:26;5.83;;;3.20;;
9821;SDS011;4950;46.042;14.472;2023-02-26T11:08:55;5.13;;;2.87;;
9821;SDS011;4950;46.042;14.472;2023-02-26T11:11:38;6.30;;;3.40;;
9821;SDS011;4950;46.042;14.472;2023-02-26T11:14:08;5.17;;;2.93;;
9821;SDS011;4950;46.042;14.472;2023-02-26T11:16:39;4.80;;;3.00;;
9821;SDS011;4950;46.042;14.472;2023-02-26T11:19:11;5.37;;;3.30;;
9821;SDS011;4950;46.042;14.472;2023-02-26T11:21:40;6.87;;;3.50;;
9821;SDS011;4950;46.042;14.472;2023-02-26T11:24:10;5.53;;;3.20;;
9821;SDS011;4950;46.042;14.472;2023-02-26T11:26:41;8.03;;;4.47;;
9821;SDS011;4950;46.042;14.472;2023-02-26T11:29:12;7.70;;;4.13;;
9821;SDS011;4950;46.042;14.472;2023-02-26T11:31:42;6.33;;;3.73;;
9821;SDS011;4950;46.042;14.472;2023-02-26T11:34:14;5.17;;;2.93;;
9821;SDS011;4950;46.042;14.472;2023-02-26T11:36:41;4.90;;;2.97;;
9821;SDS011;4950;46.042;14.472;2023-02-26T11:39:13;5.83;;;3.50;;
9821;SDS011;4950;46.042;14.472;2023-02-26T11:41:43;5.67;;;3.43;;
9821;SDS011;4950;46.042;14.472;2023-02-26T11:44:13;7.53;;;3.40;;
9821;SDS011;4950;46.042;14.472;2023-02-26T11:46:44;10.30;;;4.00;;
9821;SDS011;4950;46.042;14.472;2023-02-26T11:49:17;9.53;;;4.47;;
9821;SDS011;4950;46.042;14.472;2023-02-26T11:51:47;8.05;;;4.38;;
9821;SDS011;4950;46.042;14.472;2023-02-26T11:56:59;7.83;;;4.03;;
9821;SDS011;4950;46.042;14.472;2023-02-26T11:59:27;8.93;;;3.60;;
9821;SDS011;4950;46.042;14.472;2023-02-26T12:01:57;5.90;;;3.50;;
9821;SDS011;4950;46.042;14.472;2023-02-26T12:04:29;6.90;;;3.80;;
9821;SDS011;4950;46.042;14.472;2023-02-26T12:06:56;6.43;;;3.65;;
9821;SDS011;4950;46.042;14.472;2023-02-26T12:09:23;7.13;;;3.65;;
9821;SDS011;4950;46.042;14.472;2023-02-26T12:12:01;7.80;;;4.63;;
9821;SDS011;4950;46.042;14.472;2023-02-26T12:14:48;9.17;;;4.07;;
9821;SDS011;4950;46.042;14.472;2023-02-26T12:17:29;7.03;;;3.97;;
9821;SDS011;4950;46.042;14.472;2023-02-26T12:20:12;7.35;;;3.92;;
9821;SDS011;4950;46.042;14.472;2023-02-26T12:22:47;7.45;;;4.00;;
9821;SDS011;4950;46.042;14.472;2023-02-26T12:25:25;8.05;;;3.55;;
9821;SDS011;4950;46.042;14.472;2023-02-26T12:28:06;9.60;;;4.37;;
9821;SDS011;4950;46.042;14.472;2023-02-26T12:30:53;9.25;;;4.53;;
9821;SDS011;4950;46.042;14.472;2023-02-26T12:33:36;7.45;;;3.78;;
9821;SDS011;4950;46.042;14.472;2023-02-26T12:36:18;7.03;;;4.40;;
9821;SDS011;4950;46.042;14.472;2023-02-26T12:38:56;7.10;;;2.75;;
9821;SDS011;4950;46.042;14.472;2023-02-26T12:41:48;5.50;;;2.90;;
9821;SDS011;4950;46.042;14.472;2023-02-26T12:44:28;5.65;;;2.60;;
9821;SDS011;4950;46.042;14.472;2023-02-26T12:47:17;6.17;;;2.80;;
9821;SDS011;4950;46.042;14.472;2023-02-26T12:50:07;5.30;;;3.17;;
9821;SDS011;4950;46.042;14.472;2023-02-26T12:52:59;6.63;;;3.13;;
9821;SDS011;4950;46.042;14.472;2023-02-26T12:55:48;4.50;;;2.63;;
9821;SDS011;4950;46.042;14.472;2023-02-26T13:01:23;6.97;;;3.10;;
9821;SDS011;4950;46.042;14.472;2023-02-26T13:04:13;6.63;;;3.40;;
9821;SDS011;4950;46.042;14.472;2023-02-26T13:07:09;6.28;;;3.22;;
9821;SDS011;4950;46.042;14.472;2023-02-26T13:09:52;4.50;;;2.80;;
9821;SDS011;4950;46.042;14.472;2023-02-26T13:12:29;8.75;;;2.75;;
9821;SDS011;4950;46.042;14.472;2023-02-26T13:15:18;6.78;;;2.60;;
9821;SDS011;4950;46.042;14.472;2023-02-26T13:18:03;5.72;;;2.72;;
9821;SDS011;4950;46.042;14.472;2023-02-26T13:20:37;5.38;;;2.95;;
9821;SDS011;4950;46.042;14.472;2023-02-26T13:23:10;5.97;;;3.08;;
9821;SDS011;4950;46.042;14.472;2023-02-26T13:25:43;4.20;;;3.00;;
9821;SDS011;4950;46.042;14.472;2023-02-26T13:28:19;3.78;;;2.55;;
9821;SDS011;4950;46.042;14.472;2023-02-26T13:30:50;4.43;;;2.50;;
9821;SDS011;4950;46.042;14.472;2023-02-26T13:33:22;6.63;;;3.27;;
9821;SDS011;4950;46.042;14.472;2023-02-26T13:35:52;4.23;;;2.40;;
9821;SDS011;4950;46.042;14.472;2023-02-26T13:38:21;4.63;;;2.40;;
9821;SDS011;4950;46.042;14.472;2023-02-26T13:40:59;5.53;;;2.83;;
9821;SDS011;4950;46.042;14.472;2023-02-26T13:43:38;5.37;;;3.03;;
9821;SDS011;4950;46.042;14.472;2023-02-26T13:46:21;5.67;;;2.70;;
9821;SDS011;4950;46.042;14.472;2023-02-26T13:48:57;6.30;;;2.80;;
9821;SDS011;4950;46.042;14.472;2023-02-26T13:51:30;6.43;;;2.97;;
9821;SDS011;4950;46.042;14.472;2023-02-26T13:54:01;7.90;;;3.60;;
9821;SDS011;4950;46.042;14.472;2023-02-26T13:56:46;4.30;;;2.53;;
9821;SDS011;4950;46.042;14.472;2023-02-26T13:59:25;5.30;;;2.72;;
9821;SDS011;4950;46.042;14.472;2023-02-26T14:02:15;4.85;;;2.45;;
9821;SDS011;4950;46.042;14.472;2023-02-26T14:05:09;6.88;;;2.80;;
9821;SDS011;4950;46.042;14.472;2023-02-26T14:08:20;6.22;;;2.40;;
9821;SDS011;4950;46.042;14.472;2023-02-26T14:10:56;4.75;;;2.55;;
9821;SDS011;4950;46.042;14.472;2023-02-26T14:13:32;4.10;;;2.55;;
9821;SDS011;4950;46.042;14.472;2023-02-26T14:16:01;4.68;;;2.20;;
9821;SDS011;4950;46.042;14.472;2023-02-26T14:18:40;4.22;;;2.20;;
9821;SDS011;4950;46.042;14.472;2023-02-26T14:21:30;4.07;;;2.60;;
9821;SDS011;4950;46.042;14.472;2023-02-26T14:24:02;3.72;;;2.33;;
9821;SDS011;4950;46.042;14.472;2023-02-26T14:26:37;5.72;;;3.05;;
9821;SDS011;4950;46.042;14.472;2023-02-26T14:29:12;8.32;;;2.75;;
9821;SDS011;4950;46.042;14.472;2023-02-26T14:34:42;8.02;;;2.92;;
9821;SDS011;4950;46.042;14.472;2023-02-26T14:37:16;4.13;;;2.50;;
9821;SDS011;4950;46.042;14.472;2023-02-26T14:39:46;4.47;;;2.50;;
9821;SDS011;4950;46.042;14.472;2023-02-26T14:42:18;5.70;;;2.58;;
9821;SDS011;4950;46.042;14.472;2023-02-26T14:44:49;5.03;;;2.88;;
9821;SDS011;4950;46.042;14.472;2023-02-26T14:47:21;5.70;;;2.30;;
9821;SDS011;4950;46.042;14.472;2023-02-26T14:49:48;14.38;;;2.85;;
9821;SDS011;4950;46.042;14.472;2023-02-26T14:52:33;6.10;;;2.70;;
9821;SDS011;4950;46.042;14.472;2023-02-26T14:55:34;4.75;;;2.50;;
9821;SDS011;4950;46.042;14.472;2023-02-26T14:58:13;5.60;;;2.65;;
9821;SDS011;4950;46.042;14.472;2023-02-26T15:00:52;7.10;;;3.42;;
9821;SDS011;4950;46.042;14.472;2023-02-26T15:03:32;5.47;;;2.25;;
9821;SDS011;4950;46.042;14.472;2023-02-26T15:06:28;8.25;;;3.80;;
9821;SDS011;4950;46.042;14.472;2023-02-26T15:09:10;3.03;;;2.15;;
9821;SDS011;4950;46.042;14.472;2023-02-26T15:11:48;4.88;;;2.40;;
9821;SDS011;4950;46.042;14.472;2023-02-26T15:14:30;4.65;;;2.20;;
9821;SDS011;4950;46.042;14.472;2023-02-26T15:17:18;6.70;;;2.55;;
9821;SDS011;4950;46.042;14.472;2023-02-26T15:20:01;8.93;;;2.53;;
9821;SDS011;4950;46.042;14.472;2023-02-26T15:22:47;3.53;;;2.25;;
9821;SDS011;4950;46.042;14.472;2023-02-26T15:25:26;4.07;;;2.30;;
9821;SDS011;4950;46.042;14.472;2023-02-26T15:27:55;8.30;;;3.00;;
9821;SDS011;4950;46.042;14.472;2023-02-26T15:30:22;4.22;;;2.47;;
9821;SDS011;4950;46.042;14.472;2023-02-26T15:32:56;5.35;;;2.70;;
9821;SDS011;4950;46.042;14.472;2023-02-26T15:35:25;8.52;;;2.28;;
9821;SDS011;4950;46.042;14.472;2023-02-26T15:37:55;3.42;;;2.17;;
9821;SDS011;4950;46.042;14.472;2023-02-26T15:40:22;4.80;;;2.60;;
9821;SDS011;4950;46.042;14.472;2023-02-26T15:42:51;3.60;;;2.30;;
9821;SDS011;4950;46.042;14.472;2023-02-26T15:45:22;3.87;;;2.10;;
9821;SDS011;4950;46.042;14.472;2023-02-26T15:47:53;5.97;;;2.80;;
9821;SDS011;4950;46.042;14.472;2023-02-26T15:50:24;5.03;;;2.00;;
9821;SDS011;4950;46.042;14.472;2023-02-26T15:52:54;4.80;;;2.40;;